Petersburg, AK

10:03 AM AKDT on July 24, 2016 (GMT -0800)
Johnson Petersburg | | Change Station

Elev 0 ft 56.82 °N, 132.97 °W | Updated 7 minutes ago

Overcast
Overcast
55 °F
Feels Like 55 °F
N
4
Wind Variable Wind from WNW

Today
High -- | Low -- °F
--% Chance of Precip.
Yesterday
High -- | Low -- °F
Precip. -- in
Pressure 30.01 in
Visibility 7.0 miles
Clouds Few 800 ft
Mostly Cloudy 2300 ft
Overcast 3500 ft
Dew Point 46 °F
Humidity 72%
Rainfall 0.40 in
Snow Depth Not available.
4:38 AM 9:19 PM
Waning Gibbous, 74% visible
METAR PAPG 241756Z 29003KT 7SM FEW008 BKN023 OVC035 13/08 A3001 RMK AO1 -RA P0001 60005 10130 20120 52020
Pressure 30.01 in
Visibility 7.0 miles
Clouds Few 800 ft
Mostly Cloudy 2300 ft
Overcast 3500 ft
Dew Point 46 °F
Humidity 72%
Rainfall 0.40 in
Snow Depth Not available.
4:38 AM 9:19 PM
Waning Gibbous, 74% visible
METAR PAPG 241756Z 29003KT 7SM FEW008 BKN023 OVC035 13/08 A3001 RMK AO1 -RA P0001 60005 10130 20120 52020

10-Day Weather Forecast

Almanac

Astronomy

Jul. 24, 2016 Rise Set
Actual Time
Civil Twilight
Nautical Twilight
Astronomical Twilight
Moon
Length of Visible Light
Length of Day
Tomorrow will be .
, % of the Moon is Illuminated

Today's Extremes

State Highs State Lows

Community

WunderPhotos

Upload Photos

1,927,142 photos uploaded!

WunderBlog® & News

Nearby

Air Quality

  Air Quality AQ Index Pollutant
Not available.

Snow Depth

Station Depth Elevation

Earthquake Activity

City Distance Mag. Time & Date
Minimum magnitude displayed is 2.5.

Coastal Water Temperatures

Place Temperature

Stations

Nearby Weather Stations

Station Location Temp. Windchill Dew Point Humidity Wind Precip. Elev Updated Type
                   

Watches & Warnings

There are currently no watches in effect.